Axtell, UT (84621)

11:01 PM MST on March 01, 2015 (GMT -0700)
Redmond Town | Change Station
CLOSE
Current Station
Personal Weather Station
Location: Redmond, UT
Elevation: 5115 ft
Nearby Weather Stations

Elev 5115 ft 39.01 °N, 111.86 °W | Updated 9 seconds ago

Overcast
Overcast
39.4 °F
Feels Like 34 °F
N
8.1
Wind Variable Wind from NNE
Gusts 10.3 mph

Today
High -- | Low -- °F
--% Chance of Precip.
Yesterday
High -- | Low -- °F
Precip. -- in
6:59 AM 6:19 PM
Waxing Gibbous, 89% visible
Pressure 30.09 in
Visibility 4.0 miles
Clouds Scattered Clouds 1200 ft
Overcast 2600 ft
Windchill 34 °F
Dew Point 29 °F
Humidity 67%
Rainfall 0.02 in
Snow Depth Not available.
UV 0 out of 12
Pollen 2.50 out of 12
Air Quality Not available.
Flu Activity Not available.
METAR KPUC 020553Z AUTO 03003KT 4SM -SN BR SCT012 OVC026 01/M01 A3001 RMK AO2 SLP187 P0001 60002 T00061011 10044 20006 58007

More Conditions Fewer Conditions

Pressure 30.09 in
Visibility 4.0 miles
Clouds Scattered Clouds 1200 ft
Overcast 2600 ft
Windchill 34 °F
Dew Point 29 °F
Humidity 67%
Rainfall 0.02 in
Snow Depth Not available.
UV 0 out of 12
Pollen 2.50 out of 12
Air Quality Not available.
Flu Activity Not available.
METAR KPUC 020553Z AUTO 03003KT 4SM -SN BR SCT012 OVC026 01/M01 A3001 RMK AO2 SLP187 P0001 60002 T00061011 10044 20006 58007

More Conditions Fewer Conditions

10-Day Weather Forecast

Almanac

Astronomy

Mar. 01, 2015 Rise Set
Actual Time
Civil Twilight
Nautical Twilight
Astronomical Twilight
Moon
Length of Visible Light
Length of Day
Tomorrow will be .
, % of the Moon is Illuminated

Today's Extremes

State Highs State Lows

Community

WunderPhotos

Upload Photos

1,801,738 photos uploaded!

WunderBlogs® & News

Nearby

Air Quality

  Air Quality AQ Index Pollutant
Not available.

Snow Depth

Station Depth Elevation

Earthquake Activity

City Distance Mag. Time & Date
Minimum magnitude displayed is 2.5.

Coastal Water Temperatures

Place Temperature

Nearby Weather Stations